createdAt,value
2023-02-18T00:00:06.970Z,21.00
2023-02-18T00:02:34.854Z,21.00
2023-02-18T00:05:02.850Z,20.98
2023-02-18T00:07:30.650Z,20.97
2023-02-18T00:09:58.470Z,20.97
2023-02-18T00:12:26.274Z,20.96
2023-02-18T00:14:54.086Z,20.94
2023-02-18T00:17:22.040Z,20.95
2023-02-18T00:19:49.942Z,20.95
2023-02-18T00:22:17.720Z,20.94
2023-02-18T00:24:45.581Z,20.93
2023-02-18T00:27:13.421Z,20.93
2023-02-18T00:29:41.266Z,20.92
2023-02-18T00:32:09.158Z,20.92
2023-02-18T00:34:36.941Z,20.90
2023-02-18T00:37:04.693Z,20.88
2023-02-18T00:39:32.555Z,20.87
2023-02-18T00:42:00.587Z,20.85
2023-02-18T00:44:28.406Z,20.86
2023-02-18T00:46:56.158Z,20.84
2023-02-18T00:49:24.136Z,20.84
2023-02-18T00:51:51.947Z,20.82
2023-02-18T00:54:19.751Z,20.82
2023-02-18T00:56:47.652Z,20.82
2023-02-18T00:59:15.473Z,20.80
2023-02-18T01:01:43.308Z,20.80
2023-02-18T01:04:11.298Z,20.80
2023-02-18T01:06:39.084Z,20.79
2023-02-18T01:09:06.867Z,20.77
2023-02-18T01:11:34.726Z,20.79
2023-02-18T01:14:02.502Z,20.78
2023-02-18T01:16:30.354Z,20.77
2023-02-18T01:18:58.209Z,20.76
2023-02-18T01:21:26.053Z,20.77
2023-02-18T01:23:53.842Z,20.75
2023-02-18T01:26:21.661Z,20.74
2023-02-18T01:28:49.538Z,20.73
2023-02-18T01:31:18.623Z,20.74
2023-02-18T01:33:46.458Z,20.72
2023-02-18T01:36:14.717Z,20.73
2023-02-18T01:38:42.590Z,20.73
2023-02-18T01:41:10.399Z,20.73
2023-02-18T01:43:38.291Z,20.73
2023-02-18T01:46:06.254Z,20.73
2023-02-18T01:48:34.292Z,20.72
2023-02-18T01:51:02.064Z,20.71
2023-02-18T01:53:29.937Z,20.70
2023-02-18T01:55:57.723Z,20.71
2023-02-18T01:58:25.526Z,20.72
2023-02-18T02:00:53.324Z,20.70
2023-02-18T02:03:21.203Z,20.70
2023-02-18T02:05:49.310Z,20.69
2023-02-18T02:08:17.127Z,20.69
2023-02-18T02:10:44.932Z,20.69
2023-02-18T02:13:12.694Z,20.68
2023-02-18T02:15:40.448Z,20.67
2023-02-18T02:18:08.307Z,20.68
2023-02-18T02:20:36.089Z,20.68
2023-02-18T02:23:03.869Z,20.67
2023-02-18T02:25:31.677Z,20.67
2023-02-18T02:27:59.430Z,20.67
2023-02-18T02:30:27.348Z,20.67
2023-02-18T02:32:55.201Z,20.69
2023-02-18T02:35:23.199Z,20.71
2023-02-18T02:37:51.067Z,20.72
2023-02-18T02:40:18.993Z,20.71
2023-02-18T02:42:47.987Z,20.72
2023-02-18T02:45:15.840Z,20.71
2023-02-18T02:47:43.608Z,20.71
2023-02-18T02:50:11.380Z,20.70
2023-02-18T02:52:46.243Z,20.71
2023-02-18T02:55:14.125Z,20.73
2023-02-18T02:57:41.982Z,20.72
2023-02-18T03:00:10.472Z,20.71
2023-02-18T03:02:38.754Z,20.70
2023-02-18T03:05:06.548Z,20.70
2023-02-18T03:07:34.931Z,20.69
2023-02-18T03:10:02.947Z,20.67
2023-02-18T03:12:30.686Z,20.66
2023-02-18T03:14:58.587Z,20.63
2023-02-18T03:17:26.379Z,20.64
2023-02-18T03:19:54.176Z,20.62
2023-02-18T03:22:22.055Z,20.60
2023-02-18T03:24:49.910Z,20.62
2023-02-18T03:27:17.712Z,20.62
2023-02-18T03:29:45.459Z,20.61
2023-02-18T03:32:13.285Z,20.60
2023-02-18T03:34:41.135Z,20.60
2023-02-18T03:37:08.974Z,20.60
2023-02-18T03:39:36.882Z,20.59
2023-02-18T03:42:04.657Z,20.60
2023-02-18T03:44:32.451Z,20.61
2023-02-18T03:47:00.226Z,20.60
2023-02-18T03:49:28.008Z,20.60
2023-02-18T03:51:55.850Z,20.62
2023-02-18T03:54:23.762Z,20.62
2023-02-18T03:56:51.594Z,20.64
2023-02-18T03:59:19.569Z,20.66
2023-02-18T04:01:47.323Z,20.67
2023-02-18T04:04:15.261Z,20.66
2023-02-18T04:06:43.051Z,20.64
2023-02-18T04:09:10.745Z,20.64
2023-02-18T04:11:38.528Z,20.65
2023-02-18T04:14:06.413Z,20.64
2023-02-18T04:16:34.214Z,20.65
2023-02-18T04:19:02.199Z,20.64
2023-02-18T04:21:30.013Z,20.64
2023-02-18T04:23:57.778Z,20.63
2023-02-18T04:26:25.597Z,20.63
2023-02-18T04:28:53.381Z,20.62
2023-02-18T04:31:21.298Z,20.63
2023-02-18T04:33:49.060Z,20.64
2023-02-18T04:36:16.831Z,20.63
2023-02-18T04:38:44.586Z,20.64
2023-02-18T04:41:12.899Z,20.63
2023-02-18T04:43:40.733Z,20.63
2023-02-18T04:46:08.828Z,20.64
2023-02-18T04:48:36.914Z,20.63
2023-02-18T04:51:04.648Z,20.62
2023-02-18T04:53:32.505Z,20.62
2023-02-18T04:56:00.518Z,20.62
2023-02-18T04:58:28.327Z,20.61
2023-02-18T05:00:56.121Z,20.62
2023-02-18T05:03:23.934Z,20.60
2023-02-18T05:05:51.756Z,20.59
2023-02-18T05:08:19.521Z,20.59
2023-02-18T05:10:47.295Z,20.58
2023-02-18T05:13:15.078Z,20.58
2023-02-18T05:15:42.884Z,20.56
2023-02-18T05:18:10.799Z,20.54
2023-02-18T05:20:38.598Z,20.54
2023-02-18T05:23:06.450Z,20.53
2023-02-18T05:25:34.215Z,20.52
2023-02-18T05:28:01.996Z,20.50
2023-02-18T05:30:29.892Z,20.50
2023-02-18T05:32:57.765Z,20.48
2023-02-18T05:35:25.570Z,20.48
2023-02-18T05:37:53.400Z,20.52
2023-02-18T05:40:21.158Z,20.55
2023-02-18T05:42:49.026Z,20.52
2023-02-18T05:45:16.813Z,20.52
2023-02-18T05:47:44.624Z,20.89
2023-02-18T05:50:12.416Z,21.51
2023-02-18T05:52:40.206Z,22.12
2023-02-18T05:55:08.038Z,22.64
2023-02-18T05:57:35.781Z,23.03
2023-02-18T06:00:05.404Z,23.31
2023-02-18T06:02:33.270Z,23.51
2023-02-18T06:05:01.042Z,23.66
2023-02-18T06:07:28.887Z,23.74
2023-02-18T06:09:56.788Z,23.85
2023-02-18T06:12:24.568Z,23.88
2023-02-18T06:14:52.362Z,23.94
2023-02-18T06:17:20.130Z,25.30
2023-02-18T06:19:48.014Z,29.91
2023-02-18T06:22:15.783Z,34.02
2023-02-18T06:24:43.540Z,36.39
2023-02-18T06:27:11.368Z,37.78
2023-02-18T06:29:39.169Z,38.78
2023-02-18T06:32:07.077Z,39.24
2023-02-18T06:34:35.023Z,39.38
2023-02-18T06:37:02.798Z,39.49
2023-02-18T06:39:30.677Z,39.74
2023-02-18T06:41:58.556Z,39.96
2023-02-18T06:44:26.399Z,39.97
2023-02-18T06:46:54.240Z,39.56
2023-02-18T06:49:22.144Z,38.90
2023-02-18T06:51:49.990Z,38.02
2023-02-18T06:54:17.769Z,37.10
2023-02-18T06:56:45.558Z,36.14
2023-02-18T06:59:13.913Z,35.22
2023-02-18T07:01:41.733Z,34.37
2023-02-18T07:04:09.558Z,33.49
2023-02-18T07:06:37.553Z,32.70
2023-02-18T07:09:05.368Z,31.94
2023-02-18T07:11:33.168Z,31.24
2023-02-18T07:14:01.080Z,30.57
2023-02-18T07:16:28.864Z,29.95
2023-02-18T07:18:56.646Z,29.39
2023-02-18T07:21:24.493Z,28.86
2023-02-18T07:23:52.289Z,28.39
2023-02-18T07:26:20.119Z,27.92
2023-02-18T07:28:48.137Z,27.52
2023-02-18T07:31:17.772Z,27.12
2023-02-18T07:33:45.638Z,26.74
2023-02-18T07:36:13.426Z,26.37
2023-02-18T07:38:42.130Z,26.07
2023-02-18T07:41:10.754Z,25.77
2023-02-18T07:43:38.526Z,25.47
2023-02-18T07:46:06.643Z,25.20
2023-02-18T07:48:34.642Z,24.97
2023-02-18T07:51:02.363Z,24.74
2023-02-18T07:53:30.120Z,24.53
2023-02-18T07:56:00.188Z,24.35
2023-02-18T07:58:28.050Z,24.16
2023-02-18T08:00:55.815Z,24.01
2023-02-18T08:03:23.612Z,23.85
2023-02-18T08:05:52.843Z,23.72
2023-02-18T08:08:20.932Z,23.62
2023-02-18T08:10:48.736Z,23.48
2023-02-18T08:13:16.535Z,23.39
2023-02-18T08:15:44.350Z,23.28
2023-02-18T08:18:12.136Z,23.21
2023-02-18T08:20:39.944Z,23.90
2023-02-18T08:23:07.793Z,27.03
2023-02-18T08:25:35.567Z,31.20
2023-02-18T08:28:03.337Z,34.34
2023-02-18T08:30:31.256Z,35.99
2023-02-18T08:32:59.090Z,36.77
2023-02-18T08:35:26.914Z,37.29
2023-02-18T08:37:55.150Z,37.48
2023-02-18T08:40:23.502Z,37.44
2023-02-18T08:42:51.284Z,37.26
2023-02-18T08:45:19.049Z,36.86
2023-02-18T08:48:17.373Z,36.23
2023-02-18T08:50:34.725Z,35.37
2023-02-18T08:53:03.601Z,34.53
2023-02-18T08:55:31.342Z,33.81
2023-02-18T08:57:59.159Z,33.06
2023-02-18T09:00:27.000Z,32.38
2023-02-18T09:02:54.789Z,31.71
2023-02-18T09:05:22.576Z,31.04
2023-02-18T09:07:50.392Z,30.44
2023-02-18T09:10:18.152Z,29.88
2023-02-18T09:12:45.941Z,29.32
2023-02-18T09:15:13.701Z,28.81
2023-02-18T09:17:41.508Z,28.32
2023-02-18T09:20:09.326Z,27.87
2023-02-18T09:22:37.071Z,27.46
2023-02-18T09:25:04.849Z,27.06
2023-02-18T09:27:32.592Z,26.70
2023-02-18T09:30:00.381Z,26.37
2023-02-18T09:32:34.820Z,26.08
2023-02-18T09:35:03.460Z,25.78
2023-02-18T09:37:31.303Z,25.52
2023-02-18T09:40:00.138Z,25.25
2023-02-18T09:42:28.160Z,25.03
2023-02-18T09:44:55.954Z,24.83
2023-02-18T09:47:23.765Z,24.63
2023-02-18T09:49:51.532Z,24.46
2023-02-18T09:52:19.346Z,24.27
2023-02-18T09:54:47.190Z,24.13
2023-02-18T09:57:14.993Z,23.96
2023-02-18T09:59:42.798Z,23.82
2023-02-18T10:02:10.518Z,23.69
2023-02-18T10:04:38.297Z,23.58
2023-02-18T10:07:07.025Z,23.48
2023-02-18T10:09:34.801Z,23.36
2023-02-18T10:12:02.590Z,23.26
2023-02-18T10:14:31.867Z,23.16
2023-02-18T10:16:59.662Z,23.09
2023-02-18T10:19:27.461Z,22.99
2023-02-18T10:21:55.311Z,22.87
2023-02-18T10:24:23.066Z,22.80
2023-02-18T10:26:50.851Z,22.70
2023-02-18T10:29:21.381Z,22.61
2023-02-18T10:31:49.602Z,22.47
2023-02-18T10:34:17.526Z,22.40
2023-02-18T10:36:45.282Z,22.29
2023-02-18T10:39:13.098Z,22.21
2023-02-18T10:41:40.845Z,22.15
2023-02-18T10:44:08.701Z,22.10
2023-02-18T10:46:36.569Z,22.05
2023-02-18T10:49:04.566Z,22.01
2023-02-18T10:51:32.374Z,21.98
2023-02-18T10:54:00.164Z,21.95
2023-02-18T10:56:27.935Z,21.91
2023-02-18T10:58:55.779Z,21.88
2023-02-18T11:01:23.581Z,21.83
2023-02-18T11:06:19.128Z,21.76
2023-02-18T11:08:46.890Z,21.73
2023-02-18T11:11:14.670Z,21.69
2023-02-18T11:13:42.460Z,21.67
2023-02-18T11:16:10.432Z,21.65
2023-02-18T11:18:38.583Z,21.69
2023-02-18T11:21:26.134Z,21.73
2023-02-18T11:23:53.941Z,21.74
2023-02-18T11:26:21.776Z,21.73
2023-02-18T11:28:49.560Z,21.72
2023-02-18T11:31:17.496Z,21.69
2023-02-18T11:33:45.974Z,21.69
2023-02-18T11:36:15.424Z,21.69
2023-02-18T11:38:44.897Z,21.67
2023-02-18T11:41:13.852Z,21.62
2023-02-18T11:43:41.655Z,21.62
2023-02-18T11:46:09.416Z,21.62
2023-02-18T11:48:37.146Z,21.60
2023-02-18T11:51:07.149Z,21.57
2023-02-18T11:53:35.245Z,21.57
2023-02-18T11:56:06.910Z,21.54
2023-02-18T11:58:34.652Z,21.52
2023-02-18T12:01:03.474Z,21.50
2023-02-18T12:03:32.931Z,21.48
2023-02-18T12:06:01.841Z,21.47
2023-02-18T12:08:29.628Z,21.45
2023-02-18T12:10:57.540Z,21.45
2023-02-18T12:13:25.353Z,21.41
2023-02-18T12:15:53.108Z,21.39
2023-02-18T12:18:20.978Z,21.38
2023-02-18T12:20:48.762Z,21.36
2023-02-18T12:23:16.634Z,21.37
2023-02-18T12:25:44.442Z,21.35
2023-02-18T12:28:13.263Z,21.35
2023-02-18T12:30:41.077Z,21.35
2023-02-18T12:33:08.884Z,21.35
2023-02-18T12:35:36.634Z,21.34
2023-02-18T12:38:04.418Z,21.33
2023-02-18T12:40:32.225Z,21.33
2023-02-18T12:42:59.975Z,21.32
2023-02-18T12:45:27.711Z,22.42
2023-02-18T12:47:55.548Z,27.66
2023-02-18T12:50:23.334Z,31.72
2023-02-18T12:52:51.345Z,34.19
2023-02-18T12:55:19.157Z,35.71
2023-02-18T12:57:46.945Z,36.75
2023-02-18T13:00:15.516Z,37.55
2023-02-18T13:02:43.323Z,38.16
2023-02-18T13:05:11.060Z,38.63
2023-02-18T13:07:40.151Z,38.98
2023-02-18T13:10:07.979Z,39.13
2023-02-18T13:12:35.797Z,39.07
2023-02-18T13:15:03.513Z,38.71
2023-02-18T13:17:31.268Z,37.98
2023-02-18T13:19:59.021Z,37.27
2023-02-18T13:22:27.877Z,36.44
2023-02-18T13:24:55.636Z,35.52
2023-02-18T13:27:23.414Z,34.62
2023-02-18T13:29:51.195Z,33.81
2023-02-18T13:32:19.496Z,33.04
2023-02-18T13:34:47.284Z,32.28
2023-02-18T13:37:15.046Z,31.60
2023-02-18T13:39:42.845Z,30.96
2023-02-18T13:42:10.700Z,30.37
2023-02-18T13:44:38.513Z,29.77
2023-02-18T13:47:06.398Z,29.27
2023-02-18T13:49:34.194Z,28.77
2023-02-18T13:52:01.989Z,28.27
2023-02-18T13:54:29.800Z,27.80
2023-02-18T13:56:57.622Z,27.39
2023-02-18T13:59:25.369Z,27.05
2023-02-18T14:01:53.240Z,26.70
2023-02-18T14:04:21.016Z,26.35
2023-02-18T14:06:48.761Z,26.04
2023-02-18T14:09:16.674Z,25.73
2023-02-18T14:11:44.491Z,25.48
2023-02-18T14:14:12.257Z,25.24
2023-02-18T14:16:40.045Z,25.00
2023-02-18T14:19:07.864Z,24.77
2023-02-18T14:21:35.605Z,24.58
2023-02-18T14:24:06.080Z,24.41
2023-02-18T14:26:33.955Z,24.23
2023-02-18T14:29:35.548Z,24.11
2023-02-18T14:32:05.012Z,23.90
2023-02-18T14:34:32.892Z,23.73
2023-02-18T14:37:00.695Z,24.49
2023-02-18T14:39:28.431Z,26.45
2023-02-18T14:41:56.141Z,28.54
2023-02-18T14:47:10.825Z,32.07
2023-02-18T14:49:38.581Z,32.98
2023-02-18T14:52:06.292Z,33.20
2023-02-18T14:54:34.060Z,33.08
2023-02-18T14:57:01.802Z,32.72
2023-02-18T14:59:29.609Z,32.25
2023-02-18T15:01:57.519Z,31.64
2023-02-18T15:04:25.315Z,31.01
2023-02-18T15:06:53.016Z,30.37
2023-02-18T15:09:20.780Z,29.81
2023-02-18T15:11:48.529Z,29.21
2023-02-18T15:14:16.237Z,28.73
2023-02-18T15:16:43.989Z,28.23
2023-02-18T15:19:13.407Z,27.79
2023-02-18T15:21:41.327Z,27.34
2023-02-18T15:24:09.101Z,26.91
2023-02-18T15:26:36.826Z,26.57
2023-02-18T15:29:04.609Z,26.22
2023-02-18T15:31:32.408Z,25.88
2023-02-18T15:34:00.345Z,25.60
2023-02-18T15:36:28.237Z,25.35
2023-02-18T15:38:56.108Z,25.06
2023-02-18T15:41:24.140Z,24.83
2023-02-18T15:43:51.884Z,24.62
2023-02-18T15:46:19.668Z,24.41
2023-02-18T15:48:47.370Z,24.26
2023-02-18T15:51:17.767Z,24.11
2023-02-18T15:53:45.708Z,23.90
2023-02-18T15:56:13.449Z,23.73
2023-02-18T15:58:41.196Z,23.59
2023-02-18T16:01:09.330Z,23.47
2023-02-18T16:03:37.306Z,23.33
2023-02-18T16:06:05.040Z,23.27
2023-02-18T16:08:32.749Z,23.16
2023-02-18T16:11:02.739Z,23.07
2023-02-18T16:13:31.460Z,22.98
2023-02-18T16:16:06.628Z,22.88
2023-02-18T16:18:34.492Z,22.79
2023-02-18T16:21:02.569Z,22.71
2023-02-18T16:23:30.293Z,22.65
2023-02-18T16:25:57.994Z,22.58
2023-02-18T16:28:27.816Z,22.55
2023-02-18T16:30:55.599Z,22.72
2023-02-18T16:33:23.312Z,24.22
2023-02-18T16:35:51.214Z,27.45
2023-02-18T16:38:19.051Z,30.39
2023-02-18T16:40:46.754Z,32.45
2023-02-18T16:43:15.578Z,33.94
2023-02-18T16:45:43.311Z,35.12
2023-02-18T16:48:11.007Z,36.00
2023-02-18T16:50:38.727Z,36.51
2023-02-18T16:53:06.459Z,36.70
2023-02-18T16:55:34.148Z,36.48
2023-02-18T16:58:01.957Z,36.00
2023-02-18T17:00:29.707Z,35.35
2023-02-18T17:02:57.445Z,34.60
2023-02-18T17:05:26.866Z,33.84
2023-02-18T17:07:54.919Z,33.09
2023-02-18T17:10:22.673Z,32.39
2023-02-18T17:12:50.413Z,31.72
2023-02-18T17:15:18.130Z,31.06
2023-02-18T17:17:45.904Z,30.45
2023-02-18T17:20:14.665Z,29.86
2023-02-18T17:22:43.087Z,29.33
2023-02-18T17:25:10.878Z,28.83
2023-02-18T17:27:38.787Z,28.35
2023-02-18T17:30:06.581Z,27.91
2023-02-18T17:32:34.309Z,27.47
2023-02-18T17:35:02.032Z,27.09
2023-02-18T17:37:29.761Z,26.73
2023-02-18T17:39:57.469Z,26.36
2023-02-18T17:42:25.201Z,26.09
2023-02-18T17:44:52.949Z,25.80
2023-02-18T17:47:20.682Z,25.54
2023-02-18T17:49:48.410Z,25.31
2023-02-18T17:52:16.168Z,25.06
2023-02-18T17:54:43.905Z,24.84
2023-02-18T17:57:11.602Z,24.64
2023-02-18T17:59:39.287Z,24.47
2023-02-18T18:02:07.007Z,24.29
2023-02-18T18:04:34.767Z,24.13
2023-02-18T18:07:02.500Z,23.99
2023-02-18T18:09:30.224Z,23.86
2023-02-18T18:11:58.029Z,23.71
2023-02-18T18:14:25.759Z,23.59
2023-02-18T18:16:53.492Z,23.49
2023-02-18T18:19:21.365Z,23.36
2023-02-18T18:21:49.203Z,23.24
2023-02-18T18:24:16.965Z,23.15
2023-02-18T18:26:44.706Z,23.03
2023-02-18T18:29:12.698Z,22.98
2023-02-18T18:31:40.597Z,22.91
2023-02-18T18:34:08.510Z,22.84
2023-02-18T18:36:36.284Z,22.78
2023-02-18T18:39:04.117Z,23.23
2023-02-18T18:41:31.880Z,25.16
2023-02-18T18:43:59.598Z,28.50
2023-02-18T18:46:27.393Z,31.35
2023-02-18T18:48:56.033Z,33.39
2023-02-18T18:51:24.047Z,34.67
2023-02-18T18:53:51.840Z,35.57
2023-02-18T18:56:19.654Z,35.98
2023-02-18T18:58:47.558Z,35.97
2023-02-18T19:01:22.718Z,35.61
2023-02-18T19:03:50.500Z,34.97
2023-02-18T19:06:18.309Z,34.30
2023-02-18T19:08:47.814Z,33.61
2023-02-18T19:11:15.694Z,32.89
2023-02-18T19:13:43.433Z,32.19
2023-02-18T19:16:11.282Z,31.55
2023-02-18T19:18:39.146Z,30.92
2023-02-18T19:21:07.080Z,30.28
2023-02-18T19:23:35.060Z,29.71
2023-02-18T19:26:02.967Z,29.19
2023-02-18T19:28:30.720Z,28.70
2023-02-18T19:30:58.541Z,28.27
2023-02-18T19:33:26.334Z,27.85
2023-02-18T19:35:54.103Z,27.41
2023-02-18T19:38:21.872Z,27.03
2023-02-18T19:40:49.604Z,26.66
2023-02-18T19:43:17.336Z,26.33
2023-02-18T19:45:45.089Z,26.04
2023-02-18T19:48:12.940Z,25.74
2023-02-18T19:50:40.689Z,25.49
2023-02-18T19:53:08.465Z,25.25
2023-02-18T19:55:36.258Z,25.06
2023-02-18T19:58:03.997Z,24.86
2023-02-18T20:00:31.743Z,24.67
2023-02-18T20:02:59.592Z,24.47
2023-02-18T20:05:27.442Z,24.30
2023-02-18T20:07:55.150Z,24.14
2023-02-18T20:10:23.574Z,24.00
2023-02-18T20:12:51.413Z,23.85
2023-02-18T20:15:19.166Z,23.69
2023-02-18T20:17:47.982Z,23.60
2023-02-18T20:20:15.678Z,23.49
2023-02-18T20:22:43.387Z,23.36
2023-02-18T20:25:11.223Z,23.27
2023-02-18T20:27:47.909Z,23.17
2023-02-18T20:30:22.485Z,23.04
2023-02-18T20:32:50.294Z,22.99
2023-02-18T20:35:18.087Z,22.90
2023-02-18T20:37:45.866Z,22.83
2023-02-18T20:40:13.688Z,22.74
2023-02-18T20:42:42.045Z,22.67
2023-02-18T20:45:09.853Z,22.59
2023-02-18T20:47:37.638Z,22.51
2023-02-18T20:50:05.375Z,22.55
2023-02-18T20:52:34.756Z,22.57
2023-02-18T20:55:02.711Z,22.53
2023-02-18T20:57:30.539Z,22.55
2023-02-18T20:59:59.023Z,22.52
2023-02-18T21:05:14.836Z,22.39
2023-02-18T21:07:42.661Z,22.35
2023-02-18T21:10:10.661Z,22.32
2023-02-18T21:12:38.351Z,22.28
2023-02-18T21:15:06.202Z,22.26
2023-02-18T21:17:33.938Z,22.23
2023-02-18T21:20:01.699Z,22.22
2023-02-18T21:22:29.486Z,22.19
2023-02-18T21:24:59.202Z,22.16
2023-02-18T21:27:27.516Z,22.15
2023-02-18T21:29:55.255Z,22.14
2023-02-18T21:32:23.263Z,22.11
2023-02-18T21:34:51.071Z,22.09
2023-02-18T21:37:18.876Z,22.08
2023-02-18T21:39:46.644Z,22.06
2023-02-18T21:42:14.317Z,22.03
2023-02-18T21:44:43.056Z,22.01
2023-02-18T21:47:11.010Z,22.00
2023-02-18T21:49:38.806Z,21.96
2023-02-18T21:52:09.504Z,21.94
2023-02-18T21:54:37.432Z,21.94
2023-02-18T21:57:05.224Z,21.93
2023-02-18T21:59:32.996Z,21.90
2023-02-18T22:02:01.092Z,21.87
2023-02-18T22:04:28.894Z,21.84
2023-02-18T22:06:56.800Z,21.83
2023-02-18T22:09:24.599Z,21.80
2023-02-18T22:11:52.353Z,21.78
2023-02-18T22:14:20.118Z,21.77
2023-02-18T22:16:48.013Z,21.76
2023-02-18T22:19:15.842Z,21.75
2023-02-18T22:21:43.790Z,21.72
2023-02-18T22:24:11.606Z,21.71
2023-02-18T22:26:39.346Z,21.70
2023-02-18T22:29:07.101Z,21.67
2023-02-18T22:31:34.974Z,21.65
2023-02-18T22:34:02.854Z,21.65
2023-02-18T22:36:30.711Z,21.62
2023-02-18T22:38:58.442Z,21.60
2023-02-18T22:41:26.490Z,21.58
2023-02-18T22:43:54.201Z,21.57
2023-02-18T22:46:22.028Z,21.56
2023-02-18T22:48:49.841Z,21.55
2023-02-18T22:51:17.597Z,21.53
2023-02-18T22:53:45.404Z,21.52
2023-02-18T22:56:13.452Z,21.50
2023-02-18T22:58:41.316Z,21.49
2023-02-18T23:01:09.493Z,21.48
2023-02-18T23:03:37.423Z,21.48
2023-02-18T23:06:05.198Z,21.47
2023-02-18T23:08:33.067Z,21.47
2023-02-18T23:11:00.852Z,21.46
2023-02-18T23:13:28.612Z,21.45
2023-02-18T23:15:56.442Z,21.45
2023-02-18T23:18:24.232Z,21.42
2023-02-18T23:21:09.786Z,21.42
2023-02-18T23:23:37.655Z,21.41
2023-02-18T23:26:05.393Z,21.40
2023-02-18T23:28:47.703Z,21.39
2023-02-18T23:31:15.910Z,21.38
2023-02-18T23:33:43.680Z,21.38
2023-02-18T23:36:11.595Z,21.37
2023-02-18T23:38:39.294Z,21.37
2023-02-18T23:41:07.254Z,21.37
2023-02-18T23:43:35.062Z,21.35
2023-02-18T23:46:02.860Z,21.36
2023-02-18T23:48:30.654Z,21.35
2023-02-18T23:50:58.385Z,21.36
2023-02-18T23:53:26.409Z,21.35
2023-02-18T23:55:54.209Z,21.34
2023-02-18T23:58:21.909Z,21.34
